createdAt,value
2023-03-20T00:01:26.552Z,104.85
2023-03-20T00:03:53.468Z,99.68
2023-03-20T00:06:24.460Z,104.93
2023-03-20T00:08:52.791Z,101.13
2023-03-20T00:11:44.378Z,107.28
2023-03-20T00:14:13.563Z,105.38
2023-03-20T00:16:42.045Z,109.20
2023-03-20T00:19:18.943Z,101.45
2023-03-20T00:21:47.603Z,102.70
2023-03-20T00:24:15.112Z,100.13
2023-03-20T00:26:42.021Z,102.95
2023-03-20T00:29:31.268Z,101.13
2023-03-20T00:31:59.086Z,104.38
2023-03-20T00:34:32.739Z,105.23
2023-03-20T00:37:00.210Z,108.03
2023-03-20T00:39:27.227Z,101.22
2023-03-20T00:41:58.267Z,107.35
2023-03-20T00:44:26.476Z,106.30
2023-03-20T00:47:00.943Z,107.77
2023-03-20T00:49:29.453Z,103.22
2023-03-20T00:51:56.500Z,103.40
2023-03-20T00:54:23.274Z,103.78
2023-03-20T00:57:09.691Z,104.90
2023-03-20T00:59:37.939Z,106.60
2023-03-20T01:02:04.962Z,107.35
2023-03-20T01:04:36.396Z,102.50
2023-03-20T01:07:03.448Z,104.32
2023-03-20T01:09:30.237Z,109.18
2023-03-20T01:11:57.048Z,106.20
2023-03-20T01:14:23.829Z,102.47
2023-03-20T01:16:50.634Z,99.80
2023-03-20T01:19:17.757Z,99.00
2023-03-20T01:21:44.695Z,98.28
2023-03-20T01:24:11.511Z,98.87
2023-03-20T01:26:39.928Z,100.60
2023-03-20T01:29:20.811Z,100.93
2023-03-20T01:31:48.071Z,101.43
2023-03-20T01:34:16.639Z,99.40
2023-03-20T01:36:53.946Z,100.03
2023-03-20T01:39:21.983Z,98.22
2023-03-20T01:41:48.886Z,100.22
2023-03-20T01:44:24.048Z,102.93
2023-03-20T01:46:52.755Z,95.88
2023-03-20T01:49:19.596Z,99.63
2023-03-20T01:51:47.412Z,95.28
2023-03-20T01:54:31.466Z,98.53
2023-03-20T01:57:16.587Z,99.82
2023-03-20T02:00:09.509Z,99.85
2023-03-20T02:02:36.289Z,98.40
2023-03-20T02:05:07.016Z,97.20
2023-03-20T02:07:33.949Z,97.18
2023-03-20T02:10:02.370Z,101.55
2023-03-20T02:12:29.166Z,101.82
2023-03-20T02:14:56.249Z,100.83
2023-03-20T02:17:24.130Z,101.65
2023-03-20T02:20:21.892Z,98.00
2023-03-20T02:23:12.392Z,99.45
2023-03-20T02:25:58.174Z,95.60
2023-03-20T02:28:48.546Z,99.17
2023-03-20T02:31:37.107Z,98.13
2023-03-20T02:34:34.523Z,93.22
2023-03-20T02:37:18.461Z,99.60
2023-03-20T02:39:52.487Z,94.80
2023-03-20T02:42:39.665Z,99.97
2023-03-20T02:45:31.222Z,92.25
2023-03-20T02:48:20.551Z,91.18
2023-03-20T02:50:53.605Z,91.75
2023-03-20T02:53:39.145Z,93.05
2023-03-20T02:56:20.334Z,91.47
2023-03-20T02:59:03.050Z,96.32
2023-03-20T03:01:33.350Z,100.45
2023-03-20T03:04:03.227Z,95.10
2023-03-20T03:06:31.741Z,94.72
2023-03-20T03:09:12.167Z,97.60
2023-03-20T03:11:42.330Z,101.38
2023-03-20T03:14:13.806Z,102.25
2023-03-20T03:16:40.787Z,99.63
2023-03-20T03:19:15.945Z,101.22
2023-03-20T03:21:42.766Z,101.27
2023-03-20T03:24:39.406Z,100.93
2023-03-20T03:27:35.947Z,94.90
2023-03-20T03:30:17.866Z,96.40
2023-03-20T03:32:48.451Z,99.80
2023-03-20T03:35:20.783Z,100.37
2023-03-20T03:38:01.639Z,99.40
2023-03-20T03:40:50.186Z,96.30
2023-03-20T03:43:19.088Z,92.03
2023-03-20T03:45:48.905Z,93.60
2023-03-20T03:48:18.882Z,91.63
2023-03-20T03:50:48.994Z,88.72
2023-03-20T03:53:24.546Z,96.57
2023-03-20T03:55:53.797Z,98.00
2023-03-20T03:58:31.453Z,96.72
2023-03-20T04:00:58.934Z,92.73
2023-03-20T04:03:29.313Z,93.93
2023-03-20T04:05:56.309Z,90.38
2023-03-20T04:08:23.081Z,95.22
2023-03-20T04:10:49.891Z,90.05
2023-03-20T04:13:16.753Z,100.00
2023-03-20T04:15:43.979Z,91.70
2023-03-20T04:18:17.639Z,93.03
2023-03-20T04:20:45.589Z,99.65
2023-03-20T04:23:12.614Z,96.43
2023-03-20T04:25:39.455Z,98.03
2023-03-20T04:28:06.296Z,91.97
2023-03-20T04:30:33.130Z,97.97
2023-03-20T04:33:00.221Z,95.15
2023-03-20T04:35:27.154Z,94.50
2023-03-20T04:37:53.931Z,94.97
2023-03-20T04:40:20.731Z,93.38
2023-03-20T04:42:47.557Z,96.90
2023-03-20T04:45:14.352Z,94.70
2023-03-20T04:47:41.337Z,100.32
2023-03-20T04:50:08.499Z,96.50
2023-03-20T04:52:35.428Z,97.00
2023-03-20T04:55:02.187Z,95.95
2023-03-20T04:57:28.990Z,97.60
2023-03-20T04:59:56.370Z,98.75
2023-03-20T05:02:23.194Z,97.33
2023-03-20T05:04:50.023Z,95.55
2023-03-20T05:07:16.972Z,89.80
2023-03-20T05:09:43.778Z,88.25
2023-03-20T05:12:10.797Z,97.90
2023-03-20T05:14:37.609Z,91.23
2023-03-20T05:17:04.551Z,90.68
2023-03-20T05:19:31.565Z,90.47
2023-03-20T05:21:58.411Z,94.35
2023-03-20T05:24:25.776Z,92.10
2023-03-20T05:26:52.544Z,87.17
2023-03-20T05:29:19.426Z,88.28
2023-03-20T05:31:46.330Z,94.82
2023-03-20T05:34:13.236Z,89.35
2023-03-20T05:36:40.069Z,89.57
2023-03-20T05:39:07.228Z,91.60
2023-03-20T05:41:34.032Z,85.85
2023-03-20T05:44:00.926Z,90.43
2023-03-20T05:46:27.826Z,85.95
2023-03-20T05:48:54.847Z,90.63
2023-03-20T05:51:21.670Z,91.03
2023-03-20T05:53:48.464Z,87.38
2023-03-20T05:56:15.228Z,86.38
2023-03-20T05:58:42.446Z,86.22
2023-03-20T06:01:09.267Z,87.88
2023-03-20T06:03:36.998Z,86.83
2023-03-20T06:06:04.602Z,83.03
2023-03-20T06:08:31.470Z,81.90
2023-03-20T06:10:58.260Z,83.20
2023-03-20T06:13:25.168Z,79.53
2023-03-20T06:15:51.978Z,78.90
2023-03-20T06:18:18.811Z,74.68
2023-03-20T06:20:45.628Z,76.07
2023-03-20T06:23:12.496Z,78.20
2023-03-20T06:25:39.282Z,78.05
2023-03-20T06:28:06.134Z,74.83
2023-03-20T06:30:32.952Z,76.60
2023-03-20T06:32:59.765Z,76.65
2023-03-20T06:35:30.844Z,74.65
2023-03-20T06:37:58.444Z,73.97
2023-03-20T06:40:25.711Z,75.93
2023-03-20T06:42:52.543Z,76.75
2023-03-20T06:45:19.976Z,73.57
2023-03-20T06:47:47.409Z,78.05
2023-03-20T06:50:14.424Z,72.03
2023-03-20T06:52:41.323Z,71.00
2023-03-20T06:55:08.480Z,71.57
2023-03-20T06:57:35.295Z,68.63
2023-03-20T07:00:04.351Z,67.95
2023-03-20T07:02:31.248Z,66.00
2023-03-20T07:04:58.104Z,66.57
2023-03-20T07:07:25.244Z,66.00
2023-03-20T07:09:52.432Z,68.88
2023-03-20T07:12:20.450Z,63.67
2023-03-20T07:14:47.247Z,63.90
2023-03-20T07:17:14.031Z,62.17
2023-03-20T07:19:41.522Z,65.85
2023-03-20T07:22:08.915Z,59.92
2023-03-20T07:24:35.792Z,61.40
2023-03-20T07:27:02.660Z,60.13
2023-03-20T07:29:29.472Z,58.87
2023-03-20T07:31:56.519Z,59.15
2023-03-20T07:34:23.466Z,58.53
2023-03-20T07:36:50.388Z,60.20
2023-03-20T07:39:17.560Z,57.67
2023-03-20T07:41:44.371Z,55.40
2023-03-20T07:44:11.169Z,58.72
2023-03-20T07:46:37.991Z,57.00
2023-03-20T07:49:05.827Z,57.85
2023-03-20T07:51:32.784Z,55.08
2023-03-20T07:53:59.731Z,51.73
2023-03-20T07:56:26.623Z,52.88
2023-03-20T07:58:53.407Z,52.38
2023-03-20T08:01:20.488Z,52.85
2023-03-20T08:03:47.702Z,50.28
2023-03-20T08:06:14.623Z,50.17
2023-03-20T08:08:41.884Z,51.85
2023-03-20T08:11:08.788Z,46.30
2023-03-20T08:13:35.613Z,45.25
2023-03-20T08:16:02.422Z,45.75
2023-03-20T08:18:29.249Z,42.43
2023-03-20T08:20:56.214Z,45.03
2023-03-20T08:23:23.073Z,40.42
2023-03-20T08:25:50.255Z,39.42
2023-03-20T08:28:17.269Z,38.63
2023-03-20T08:30:44.228Z,37.63
2023-03-20T08:33:11.167Z,35.67
2023-03-20T08:35:38.479Z,35.60
2023-03-20T08:38:05.554Z,34.30
2023-03-20T08:40:32.608Z,30.65
2023-03-20T08:42:59.490Z,30.77
2023-03-20T08:45:26.397Z,31.35
2023-03-20T08:47:53.511Z,28.83
2023-03-20T08:50:20.288Z,25.30
2023-03-20T08:52:47.270Z,24.73
2023-03-20T08:55:14.925Z,24.33
2023-03-20T08:57:41.963Z,21.48
2023-03-20T09:00:12.451Z,22.15
2023-03-20T09:02:39.432Z,21.23
2023-03-20T09:05:07.488Z,18.45
2023-03-20T09:07:34.354Z,18.53
2023-03-20T09:10:01.192Z,17.00
2023-03-20T09:12:28.128Z,17.45
2023-03-20T09:14:54.898Z,14.25
2023-03-20T09:17:21.731Z,15.25
2023-03-20T09:19:48.571Z,14.00
2023-03-20T09:22:15.726Z,12.15
2023-03-20T09:24:42.545Z,12.25
2023-03-20T09:27:09.381Z,12.32
2023-03-20T09:29:36.206Z,11.95
2023-03-20T09:32:03.042Z,11.60
2023-03-20T09:34:29.853Z,11.80
2023-03-20T09:36:57.234Z,9.70
2023-03-20T09:39:24.379Z,10.82
2023-03-20T09:41:56.984Z,9.63
2023-03-20T09:45:12.131Z,9.77
2023-03-20T09:48:04.225Z,8.73
2023-03-20T09:50:56.069Z,13.07
2023-03-20T09:53:36.385Z,9.93
2023-03-20T09:56:03.365Z,9.30
2023-03-20T09:58:34.288Z,9.50
2023-03-20T10:01:02.029Z,10.10
2023-03-20T10:03:33.126Z,11.05
2023-03-20T10:06:02.845Z,11.35
2023-03-20T10:08:34.308Z,10.40
2023-03-20T10:11:28.891Z,10.27
2023-03-20T10:14:16.320Z,11.02
2023-03-20T10:17:02.166Z,10.73
2023-03-20T10:19:30.846Z,11.07
2023-03-20T10:22:18.668Z,10.63
2023-03-20T10:24:51.185Z,9.00
2023-03-20T10:27:28.213Z,9.43
2023-03-20T10:30:20.211Z,9.88
2023-03-20T10:33:09.286Z,9.18
2023-03-20T10:35:47.941Z,7.53
2023-03-20T10:38:17.755Z,7.90
2023-03-20T10:40:44.633Z,9.80
2023-03-20T10:43:17.902Z,8.98
2023-03-20T10:45:52.600Z,8.82
2023-03-20T10:48:42.687Z,8.18
2023-03-20T10:51:16.613Z,10.33
2023-03-20T10:53:49.610Z,8.35
2023-03-20T10:56:42.605Z,9.00
2023-03-20T10:59:24.449Z,10.82
2023-03-20T11:01:51.308Z,9.73
2023-03-20T11:04:18.429Z,11.03
2023-03-20T11:06:54.008Z,10.20
2023-03-20T11:09:22.749Z,10.20
2023-03-20T11:11:52.250Z,11.80
2023-03-20T11:14:22.950Z,10.95
2023-03-20T11:16:53.811Z,11.10
2023-03-20T11:19:22.061Z,10.32
2023-03-20T11:21:56.729Z,11.07
2023-03-20T11:24:43.176Z,9.75
2023-03-20T11:27:11.772Z,10.55
2023-03-20T11:29:39.051Z,10.43
2023-03-20T11:32:34.640Z,9.65
2023-03-20T11:35:31.123Z,10.30
2023-03-20T11:38:17.699Z,10.27
2023-03-20T11:40:44.502Z,9.63
2023-03-20T11:43:22.388Z,9.17
2023-03-20T11:45:55.145Z,9.50
2023-03-20T11:48:23.882Z,9.90
2023-03-20T11:51:08.899Z,8.93
2023-03-20T11:53:58.586Z,9.40
2023-03-20T11:56:34.977Z,10.20
2023-03-20T11:59:11.912Z,10.43
2023-03-20T12:01:47.111Z,10.88
2023-03-20T12:04:16.193Z,11.63
2023-03-20T12:06:54.811Z,10.82
2023-03-20T12:09:21.643Z,13.03
2023-03-20T12:12:10.185Z,12.10
2023-03-20T12:15:07.728Z,12.75
2023-03-20T12:17:52.812Z,12.07
2023-03-20T12:20:41.880Z,12.90
2023-03-20T12:23:38.961Z,13.10
2023-03-20T12:26:12.829Z,14.63
2023-03-20T12:28:56.780Z,14.10
2023-03-20T12:31:36.021Z,13.10
2023-03-20T12:34:06.153Z,12.38
2023-03-20T12:36:39.193Z,12.93
2023-03-20T12:39:10.989Z,11.10
2023-03-20T12:41:48.778Z,11.25
2023-03-20T12:44:22.191Z,11.10
2023-03-20T12:47:26.156Z,10.13
2023-03-20T12:49:56.139Z,7.70
2023-03-20T12:52:28.946Z,7.97
2023-03-20T12:55:07.956Z,7.65
2023-03-20T12:57:46.928Z,7.60
2023-03-20T13:00:16.584Z,7.07
2023-03-20T13:02:55.076Z,8.33
2023-03-20T13:05:42.121Z,8.00
2023-03-20T13:08:11.895Z,8.13
2023-03-20T13:11:20.631Z,8.93
2023-03-20T13:13:59.133Z,8.93
2023-03-20T13:16:37.844Z,7.53
2023-03-20T13:19:29.326Z,9.32
2023-03-20T13:21:58.298Z,8.63
2023-03-20T13:24:36.947Z,9.88
2023-03-20T13:27:03.711Z,7.97
2023-03-20T13:29:40.509Z,8.30
2023-03-20T13:32:43.372Z,7.82
2023-03-20T13:35:15.772Z,9.45
2023-03-20T13:37:46.008Z,9.90
2023-03-20T13:40:34.530Z,9.30
2023-03-20T13:43:12.587Z,8.70
2023-03-20T13:45:41.323Z,10.23
2023-03-20T13:48:19.892Z,11.13
2023-03-20T13:51:07.356Z,9.07
2023-03-20T13:53:59.030Z,8.85
2023-03-20T13:56:58.178Z,8.37
2023-03-20T13:59:55.855Z,9.57
2023-03-20T14:02:59.994Z,9.40
2023-03-20T14:05:26.804Z,9.80
2023-03-20T14:07:57.605Z,10.00
2023-03-20T14:10:24.328Z,9.83
2023-03-20T14:13:01.226Z,9.30
2023-03-20T14:15:31.450Z,9.77
2023-03-20T14:17:58.307Z,10.10
2023-03-20T14:20:39.033Z,8.68
2023-03-20T14:23:06.153Z,9.10
2023-03-20T14:25:51.268Z,8.82
2023-03-20T14:28:21.066Z,8.43
2023-03-20T14:30:53.577Z,8.15
2023-03-20T14:33:22.888Z,9.20
2023-03-20T14:35:51.736Z,9.40
2023-03-20T14:38:50.234Z,9.88
2023-03-20T14:41:30.822Z,8.07
2023-03-20T14:44:30.185Z,8.52
2023-03-20T14:47:08.894Z,7.30
2023-03-20T14:49:55.945Z,8.77
2023-03-20T14:52:41.254Z,8.25
2023-03-20T14:55:17.919Z,8.60
2023-03-20T14:57:55.984Z,9.50
2023-03-20T15:00:24.942Z,8.02
2023-03-20T15:02:53.071Z,8.57
2023-03-20T15:05:30.753Z,7.65
2023-03-20T15:07:58.464Z,9.95
2023-03-20T15:10:25.865Z,7.53
2023-03-20T15:12:52.740Z,8.15
2023-03-20T15:15:27.582Z,7.47
2023-03-20T15:17:54.587Z,9.82
2023-03-20T15:20:23.397Z,9.27
2023-03-20T15:23:01.014Z,8.60
2023-03-20T15:25:44.003Z,7.20
2023-03-20T15:28:23.878Z,8.83
2023-03-20T15:30:54.856Z,7.93
2023-03-20T15:33:29.837Z,7.80
2023-03-20T15:35:56.722Z,7.03
2023-03-20T15:38:25.479Z,8.35
2023-03-20T15:40:52.408Z,7.53
2023-03-20T15:43:24.460Z,8.60
2023-03-20T15:46:03.013Z,8.57
2023-03-20T15:48:37.129Z,7.55
2023-03-20T15:51:09.243Z,8.00
2023-03-20T15:53:39.308Z,12.30
2023-03-20T15:56:20.286Z,8.88
2023-03-20T15:58:49.167Z,9.50
2023-03-20T16:01:20.274Z,8.50
2023-03-20T16:03:47.125Z,8.73
2023-03-20T16:06:16.889Z,9.10
2023-03-20T16:08:45.698Z,8.88
2023-03-20T16:11:14.571Z,9.07
2023-03-20T16:13:43.563Z,10.32
2023-03-20T16:16:16.423Z,9.30
2023-03-20T16:18:43.285Z,9.10
2023-03-20T16:21:23.499Z,10.50
2023-03-20T16:23:55.569Z,9.85
2023-03-20T16:26:23.391Z,9.10
2023-03-20T16:28:51.395Z,10.35
2023-03-20T16:31:36.585Z,9.03
2023-03-20T16:34:07.690Z,9.15
2023-03-20T16:36:38.068Z,9.57
2023-03-20T16:39:07.801Z,10.68
2023-03-20T16:41:35.979Z,10.13
2023-03-20T16:44:16.302Z,8.67
2023-03-20T16:47:04.999Z,10.30
2023-03-20T16:49:44.107Z,10.13
2023-03-20T16:52:12.523Z,9.35
2023-03-20T16:54:39.329Z,8.65
2023-03-20T16:57:10.162Z,8.70
2023-03-20T16:59:39.219Z,10.82
2023-03-20T17:02:12.359Z,9.27
2023-03-20T17:04:40.491Z,8.98
2023-03-20T17:07:18.521Z,8.85
2023-03-20T17:10:17.655Z,8.60
2023-03-20T17:12:46.664Z,10.40
2023-03-20T17:15:23.607Z,8.50
2023-03-20T17:17:50.824Z,9.10
2023-03-20T17:20:21.827Z,11.25
2023-03-20T17:22:48.757Z,9.20
2023-03-20T17:25:15.788Z,9.07
2023-03-20T17:27:42.673Z,9.68
2023-03-20T17:30:17.563Z,9.48
2023-03-20T17:32:44.377Z,9.65
2023-03-20T17:35:11.188Z,11.03
2023-03-20T17:37:38.245Z,8.65
2023-03-20T17:40:05.570Z,9.45
2023-03-20T17:42:32.467Z,10.25
2023-03-20T17:44:59.760Z,9.55
2023-03-20T17:47:27.960Z,9.80
2023-03-20T17:49:54.947Z,10.80
2023-03-20T17:52:23.318Z,9.23
2023-03-20T17:54:50.102Z,8.43
2023-03-20T17:57:19.436Z,9.07
2023-03-20T17:59:46.260Z,10.20
2023-03-20T18:02:13.094Z,8.85
2023-03-20T18:04:39.992Z,8.75
2023-03-20T18:07:07.295Z,9.90
2023-03-20T18:09:34.040Z,10.25
2023-03-20T18:12:01.066Z,8.60
2023-03-20T18:14:27.879Z,9.90
2023-03-20T18:16:54.635Z,10.95
2023-03-20T18:19:26.614Z,9.07
2023-03-20T18:21:53.418Z,10.45
2023-03-20T18:24:20.338Z,11.47
2023-03-20T18:26:47.422Z,9.20
2023-03-20T18:29:14.339Z,10.52
2023-03-20T18:31:43.378Z,10.32
2023-03-20T18:34:10.748Z,10.27
2023-03-20T18:36:37.601Z,10.57
2023-03-20T18:39:05.807Z,10.13
2023-03-20T18:41:33.056Z,10.07
2023-03-20T18:44:00.024Z,9.23
2023-03-20T18:46:26.962Z,10.60
2023-03-20T18:48:54.164Z,9.90
2023-03-20T18:51:21.322Z,11.63
2023-03-20T18:53:48.063Z,10.43
2023-03-20T18:56:19.073Z,9.75
2023-03-20T18:58:46.484Z,9.07
2023-03-20T19:01:13.815Z,10.33
2023-03-20T19:03:41.640Z,10.63
2023-03-20T19:06:22.824Z,11.15
2023-03-20T19:08:50.067Z,9.90
2023-03-20T19:11:20.545Z,9.52
2023-03-20T19:13:49.746Z,8.80
2023-03-20T19:16:38.252Z,10.23
2023-03-20T19:19:06.142Z,9.80
2023-03-20T19:21:33.665Z,11.48
2023-03-20T19:24:01.962Z,10.52
2023-03-20T19:26:30.120Z,12.00
2023-03-20T19:28:57.998Z,12.85
2023-03-20T19:31:25.090Z,10.40
2023-03-20T19:33:52.275Z,11.88
2023-03-20T19:36:32.583Z,10.85
2023-03-20T19:39:00.724Z,10.17
2023-03-20T19:41:28.853Z,10.13
2023-03-20T19:43:56.325Z,11.02
2023-03-20T19:46:41.239Z,10.27
2023-03-20T19:49:19.614Z,9.23
2023-03-20T19:51:47.079Z,8.20
2023-03-20T19:54:13.859Z,9.45
2023-03-20T19:56:40.830Z,8.60
2023-03-20T19:59:08.345Z,10.38
2023-03-20T20:01:36.394Z,8.93
2023-03-20T20:04:04.227Z,9.97
2023-03-20T20:06:32.922Z,8.60
2023-03-20T20:09:01.397Z,8.35
2023-03-20T20:11:28.408Z,8.07
2023-03-20T20:14:14.659Z,9.07
2023-03-20T20:16:43.335Z,8.97
2023-03-20T20:19:10.834Z,9.35
2023-03-20T20:24:24.811Z,9.40
2023-03-20T20:26:56.729Z,7.88
2023-03-20T20:29:30.135Z,9.07
2023-03-20T20:31:57.029Z,8.18
2023-03-20T20:39:58.250Z,8.13
2023-03-20T20:42:25.032Z,7.73
2023-03-20T20:44:51.776Z,7.78
2023-03-20T20:47:18.591Z,7.90
2023-03-20T20:49:48.220Z,8.23
2023-03-20T20:52:15.771Z,8.23
2023-03-20T20:54:42.696Z,7.83
2023-03-20T20:57:12.983Z,8.38
2023-03-20T20:59:40.505Z,8.25
2023-03-20T21:02:13.442Z,6.78
2023-03-20T21:04:40.894Z,8.10
2023-03-20T21:07:11.223Z,8.03
2023-03-20T21:09:38.579Z,8.23
2023-03-20T21:12:05.829Z,9.02
2023-03-20T21:14:32.787Z,8.23
2023-03-20T21:17:02.350Z,7.28
2023-03-20T21:19:29.924Z,8.30
2023-03-20T21:21:56.774Z,7.88
2023-03-20T21:24:32.325Z,7.25
2023-03-20T21:26:59.873Z,7.93
2023-03-20T21:29:26.913Z,9.23
2023-03-20T21:31:53.822Z,7.87
2023-03-20T21:34:20.877Z,7.78
2023-03-20T21:36:49.130Z,7.22
2023-03-20T21:39:17.231Z,8.10
2023-03-20T21:41:44.214Z,7.40
2023-03-20T21:44:17.102Z,6.93
2023-03-20T21:58:36.777Z,7.27
2023-03-20T22:04:01.722Z,7.53
2023-03-20T22:26:36.373Z,10.00
2023-03-20T22:42:52.894Z,6.53
2023-03-20T22:45:12.456Z,7.65
2023-03-20T22:47:39.358Z,6.60
2023-03-20T22:50:06.323Z,6.18
2023-03-20T22:52:49.581Z,7.80
2023-03-20T22:55:17.449Z,7.45
2023-03-20T22:57:56.144Z,7.50
2023-03-20T23:00:30.755Z,7.65
2023-03-20T23:03:13.799Z,7.63
2023-03-20T23:05:44.386Z,7.40
2023-03-20T23:08:11.344Z,7.72
2023-03-20T23:10:40.846Z,7.70
2023-03-20T23:13:07.650Z,7.85
2023-03-20T23:15:34.389Z,7.18
2023-03-20T23:18:01.494Z,7.23
2023-03-20T23:20:28.211Z,7.90
2023-03-20T23:22:54.949Z,7.97
2023-03-20T23:25:36.320Z,7.93
2023-03-20T23:28:06.505Z,8.27
2023-03-20T23:30:44.977Z,8.97
2023-03-20T23:33:14.981Z,8.38
2023-03-20T23:35:41.806Z,9.93
2023-03-20T23:38:08.597Z,8.43
2023-03-20T23:40:35.685Z,9.35
2023-03-20T23:43:02.652Z,9.53
2023-03-20T23:45:29.423Z,11.18
2023-03-20T23:47:56.257Z,9.75
2023-03-20T23:50:45.907Z,8.75
2023-03-20T23:53:19.823Z,10.55
2023-03-20T23:55:47.405Z,10.13
2023-03-20T23:58:14.695Z,9.02
